Orchid Ace — 7JDE — position and weather

sailwx.info

Track history (hours):
 
Tides and Currents Weather Stations Pressure Air Temp Water Temp Dewpoint Dewpoint Depression Visibility Wind Speed Wind Dir Waves Ship Positions

Orchid Ace

Last reported at 2016-May-29 04:19 UTC. Time now 2016-May-30 20:25 UTC.
Position N 34°49' E 139°37'.

Length 200 m; draft 8.3 m.

Type: Cargo ship. MMSI: 432651000.

Date/timePositionNaut miles runAvg speedWind from/ knotsBaromVisibWave heightAir tempDewpointWater temp
2016-May-29 04:19N 34°49' E 139°37'1114.1
2016-May-29 03:33N 34°60' E 139°40'1212.6
2016-May-29 02:34N 35°11' E 139°46'1212.0
2016-May-29 01:34N 35°23' E 139°42'5 4.3
2016-May-29 00:31N 35°27' E 139°41'0 0.0
2016-May-28 23:31N 35°27' E 139°41'0 0.0
2016-May-28 22:31N 35°27' E 139°41'0 0.0
2016-May-28 21:31N 35°27' E 139°41'0 0.0
2016-May-28 20:31N 35°27' E 139°41'0 0.0
2016-May-28 19:31N 35°27' E 139°41'0 0.0
2016-May-28 18:31N 35°27' E 139°41'0 0.0
2016-May-28 17:31N 35°27' E 139°41'0 0.0
2016-May-28 16:31N 35°27' E 139°41'0 0.0
2016-May-28 15:31N 35°27' E 139°41'0 0.0
2016-May-28 14:31N 35°27' E 139°41'0 0.0
2016-May-28 13:34N 35°27' E 139°41'0 0.0
2016-May-28 12:31N 35°27' E 139°41'0 0.0
2016-May-28 11:31N 35°27' E 139°41'0 0.0
2016-May-28 10:31N 35°27' E 139°41'0 0.0
2016-May-28 09:31N 35°27' E 139°41'0 0.0
2016-May-28 08:31N 35°27' E 139°41'2 1.7
2016-May-28 07:33N 35°26' E 139°42'1 1.4
2016-May-28 06:31N 35°25' E 139°41'0 0.0
2016-May-28 05:31N 35°25' E 139°41'0 0.0
2016-May-28 04:31N 35°25' E 139°41'0 0.0
2016-May-28 03:31N 35°25' E 139°41'0 0.0
2016-May-28 02:31N 35°25' E 139°41'0 0.0
2016-May-28 01:31N 35°25' E 139°41'0 0.0
2016-May-28 00:31N 35°25' E 139°41'0 0.0
2016-May-27 23:31N 35°25' E 139°41'1 1.4
2016-May-27 22:33N 35°25' E 139°42'1110.9
2016-May-27 21:34N 35°15' E 139°47'9 8.8
2016-May-27 20:33N 35°06' E 139°46'7 7.2
2016-May-27 19:34N 34°59' E 139°42'1412.5
2016-May-27 18:28N 34°46' E 139°44'1 0.5
2016-May-27 17:26N 34°46' E 139°45'0 0.5
2016-May-27 16:32N 34°46' E 139°46'1 0.7
2016-May-27 15:23N 34°46' E 139°46'1 0.5
2016-May-27 14:26N 34°46' E 139°47'1 1.1
2016-May-27 13:11N 34°46' E 139°49'1 1.5
2016-May-27 12:26N 34°46' E 139°50'2 1.9
2016-May-27 11:24N 34°44' E 139°50'1112.9
2016-May-27 10:33N 34°39' E 139°38'2 1.2
2016-May-27 08:27N 34°37' E 139°36'3 2.6
2016-May-27 07:14N 34°37' E 139°40'2414.6
2016-May-27 05:33N 35°02' E 139°41'1111.0
2016-May-27 04:33N 35°12' E 139°46'1111.4
2016-May-27 03:33N 35°23' E 139°42'2 2.3
2016-May-27 02:33N 35°21' E 139°43'1010.4
2016-May-27 01:33N 35°11' E 139°47'6 6.4
2016-May-27 00:33N 35°05' E 139°45'1110.6
2016-May-26 23:33N 34°54' E 139°41'  
2016-May-23 14:27N 34°23' E 138°54'1213.9
2016-May-23 13:34N 34°29' E 139°07'1513.7
2016-May-23 12:28N 34°37' E 139°23'1314.2
2016-May-23 11:33N 34°46' E 139°34'1414.3
2016-May-23 10:33N 34°59' E 139°40'1313.3
2016-May-23 09:33N 35°12' E 139°46'1111.5
2016-May-23 08:33N 35°23' E 139°42'1313.3
2016-May-23 07:33N 35°31' E 139°55'10 8.9
2016-May-23 06:27N 35°36' E 140°06'0 0.0
2016-May-23 05:33N 35°36' E 140°06'0 0.0
2016-May-23 04:33N 35°36' E 140°06'0 0.0
2016-May-23 03:33N 35°36' E 140°06'0 0.0
2016-May-23 02:33N 35°36' E 140°06'0 0.0
2016-May-23 01:33N 35°36' E 140°06'0 0.4
2016-May-23 00:34N 35°36' E 140°05'9 9.3
2016-May-22 23:34N 35°31' E 139°55'1111.4
2016-May-22 22:34N 35°23' E 139°46'1211.8
2016-May-22 21:34N 35°11' E 139°47'7 7.0
2016-May-22 20:34N 35°04' E 139°45'1110.7
2016-May-22 19:33N 34°54' E 139°40'1312.5
2016-May-22 18:33N 34°43' E 139°33'1711.7
2016-May-22 17:08N 34°35' E 139°16'813.4
2016-May-22 16:33N 34°31' E 139°07'3112.8
2016-May-22 14:08N 34°26' E 138°30'  
Track history (hours):
 
Tides and Currents Weather Stations Pressure Air Temp Water Temp Dewpoint Dewpoint Depression Visibility Wind Speed Wind Dir Waves Ship Positions

Orchid Ace

Last reported at 2016-May-29 04:19 UTC. Time now 2016-May-30 20:25 UTC.
Position N 34°49' E 139°37'.

Length 200 m; draft 8.3 m.

Type: Cargo ship. MMSI: 432651000.

Date/timePositionNaut miles runAvg speedWind from/ knotsBaromVisibWave heightAir tempDewpointWater temp
2016-May-29 04:19N 34°49' E 139°37'1114.1
2016-May-29 03:33N 34°60' E 139°40'1212.6
2016-May-29 02:34N 35°11' E 139°46'1212.0
2016-May-29 01:34N 35°23' E 139°42'5 4.3
2016-May-29 00:31N 35°27' E 139°41'0 0.0
2016-May-28 23:31N 35°27' E 139°41'0 0.0
2016-May-28 22:31N 35°27' E 139°41'0 0.0
2016-May-28 21:31N 35°27' E 139°41'0 0.0
2016-May-28 20:31N 35°27' E 139°41'0 0.0
2016-May-28 19:31N 35°27' E 139°41'0 0.0
2016-May-28 18:31N 35°27' E 139°41'0 0.0
2016-May-28 17:31N 35°27' E 139°41'0 0.0
2016-May-28 16:31N 35°27' E 139°41'0 0.0
2016-May-28 15:31N 35°27' E 139°41'0 0.0
2016-May-28 14:31N 35°27' E 139°41'0 0.0
2016-May-28 13:34N 35°27' E 139°41'0 0.0
2016-May-28 12:31N 35°27' E 139°41'0 0.0
2016-May-28 11:31N 35°27' E 139°41'0 0.0
2016-May-28 10:31N 35°27' E 139°41'0 0.0
2016-May-28 09:31N 35°27' E 139°41'0 0.0
2016-May-28 08:31N 35°27' E 139°41'2 1.7
2016-May-28 07:33N 35°26' E 139°42'1 1.4
2016-May-28 06:31N 35°25' E 139°41'0 0.0
2016-May-28 05:31N 35°25' E 139°41'0 0.0
2016-May-28 04:31N 35°25' E 139°41'0 0.0
2016-May-28 03:31N 35°25' E 139°41'0 0.0
2016-May-28 02:31N 35°25' E 139°41'0 0.0
2016-May-28 01:31N 35°25' E 139°41'0 0.0
2016-May-28 00:31N 35°25' E 139°41'0 0.0
2016-May-27 23:31N 35°25' E 139°41'1 1.4
2016-May-27 22:33N 35°25' E 139°42'1110.9
2016-May-27 21:34N 35°15' E 139°47'9 8.8
2016-May-27 20:33N 35°06' E 139°46'7 7.2
2016-May-27 19:34N 34°59' E 139°42'1412.5
2016-May-27 18:28N 34°46' E 139°44'1 0.5
2016-May-27 17:26N 34°46' E 139°45'0 0.5
2016-May-27 16:32N 34°46' E 139°46'1 0.7
2016-May-27 15:23N 34°46' E 139°46'1 0.5
2016-May-27 14:26N 34°46' E 139°47'1 1.1
2016-May-27 13:11N 34°46' E 139°49'1 1.5
2016-May-27 12:26N 34°46' E 139°50'2 1.9
2016-May-27 11:24N 34°44' E 139°50'1112.9
2016-May-27 10:33N 34°39' E 139°38'2 1.2
2016-May-27 08:27N 34°37' E 139°36'3 2.6
2016-May-27 07:14N 34°37' E 139°40'2414.6
2016-May-27 05:33N 35°02' E 139°41'1111.0
2016-May-27 04:33N 35°12' E 139°46'1111.4
2016-May-27 03:33N 35°23' E 139°42'2 2.3
2016-May-27 02:33N 35°21' E 139°43'1010.4
2016-May-27 01:33N 35°11' E 139°47'6 6.4
2016-May-27 00:33N 35°05' E 139°45'1110.6
2016-May-26 23:33N 34°54' E 139°41'  
2016-May-23 14:27N 34°23' E 138°54'1213.9
2016-May-23 13:34N 34°29' E 139°07'1513.7
2016-May-23 12:28N 34°37' E 139°23'1314.2
2016-May-23 11:33N 34°46' E 139°34'1414.3
2016-May-23 10:33N 34°59' E 139°40'1313.3
2016-May-23 09:33N 35°12' E 139°46'1111.5
2016-May-23 08:33N 35°23' E 139°42'1313.3
2016-May-23 07:33N 35°31' E 139°55'10 8.9
2016-May-23 06:27N 35°36' E 140°06'0 0.0
2016-May-23 05:33N 35°36' E 140°06'0 0.0
2016-May-23 04:33N 35°36' E 140°06'0 0.0
2016-May-23 03:33N 35°36' E 140°06'0 0.0
2016-May-23 02:33N 35°36' E 140°06'0 0.0
2016-May-23 01:33N 35°36' E 140°06'0 0.4
2016-May-23 00:34N 35°36' E 140°05'9 9.3
2016-May-22 23:34N 35°31' E 139°55'1111.4
2016-May-22 22:34N 35°23' E 139°46'1211.8
2016-May-22 21:34N 35°11' E 139°47'7 7.0
2016-May-22 20:34N 35°04' E 139°45'1110.7
2016-May-22 19:33N 34°54' E 139°40'1312.5
2016-May-22 18:33N 34°43' E 139°33'1711.7
2016-May-22 17:08N 34°35' E 139°16'813.4
2016-May-22 16:33N 34°31' E 139°07'3112.8
2016-May-22 14:08N 34°26' E 138°30'  

Dump ship's entire track history